Time;durP1;ratioP1;P1;durP2;ratioP2;P2;SDS_P1;SDS_P2;PMS_P1;PMS_P2;Temp;Humidity;BMP_temperature;BMP_pressure;BME280_temperature;BME280_humidity;BME280_pressure;Samples;Min_cycle;Max_cycle;Signal;HPM_P1;HPM_P2
2022/12/25 00:01:19;;;;;;;1.95;1.50;;;;;;;1.52;84.17;147704.97;5060124;28;20029;-63
2022/12/25 00:03:45;;;;;;;2.83;1.52;;;;;;;1.38;85.06;147669.34;5043802;28;20059;-63
2022/12/25 00:06:11;;;;;;;2.38;1.70;;;;;;;1.47;84.63;147692.28;5054204;28;20314;-64
2022/12/25 00:08:38;;;;;;;4.13;1.52;;;;;;;1.45;84.24;147685.91;5047195;28;20199;-63
2022/12/25 00:11:06;;;;;;;4.47;1.90;;;;;;;1.36;84.25;147665.53;5051104;28;20040;-63
2022/12/25 00:13:32;;;;;;;2.28;1.50;;;;;;;1.43;83.08;147680.84;5051669;28;20043;-63
2022/12/25 00:15:58;;;;;;;5.82;1.63;;;;;;;1.40;84.18;147673.16;5051558;28;20203;-63
2022/12/25 00:18:24;;;;;;;2.25;1.50;;;;;;;1.38;83.22;147669.34;5053596;28;20325;-64
2022/12/25 00:21:00;;;;;;;4.30;1.70;;;;;;;1.41;82.69;147675.72;5054690;28;20110;-63
2022/12/25 00:23:26;;;;;;;1.45;1.35;;;;;;;1.43;83.02;147682.09;5048138;28;20041;-62
2022/12/25 00:25:53;;;;;;;1.75;1.20;;;;;;;1.44;83.47;147683.34;5053647;28;20032;-63
2022/12/25 00:28:19;;;;;;;2.75;1.40;;;;;;;1.37;81.85;147668.09;5051751;28;20257;-64
2022/12/25 00:30:45;;;;;;;1.80;1.15;;;;;;;1.33;81.59;147656.66;5043970;28;20024;-63
2022/12/25 00:33:11;;;;;;;3.47;1.27;;;;;;;1.15;81.20;147613.34;5062615;28;20095;-63
2022/12/25 00:35:36;;;;;;;1.77;1.20;;;;;;;1.20;81.64;147626.09;5062237;28;20024;-63
2022/12/25 00:38:02;;;;;;;1.40;1.08;;;;;;;1.25;80.94;147637.53;5059354;28;20017;-64
2022/12/25 00:40:28;;;;;;;1.58;1.33;;;;;;;1.18;81.84;147621.03;5061640;28;20048;-64
2022/12/25 00:42:53;;;;;;;1.20;1.05;;;;;;;1.16;80.95;147615.91;5060743;28;20036;-64
2022/12/25 00:45:19;;;;;;;1.60;1.20;;;;;;;1.15;80.38;147613.34;5044679;28;20025;-63
2022/12/25 00:47:44;;;;;;;1.95;1.05;;;;;;;1.28;80.58;147643.91;5045575;28;20084;-64
2022/12/25 00:50:10;;;;;;;2.25;1.20;;;;;;;1.08;80.37;147594.28;5055828;28;20166;-64
2022/12/25 00:52:36;;;;;;;1.27;1.08;;;;;;;1.18;80.63;147619.72;5055299;28;20026;-64
2022/12/25 00:55:01;;;;;;;1.30;1.10;;;;;;;1.17;80.80;147617.22;5059820;28;20029;-64
2022/12/25 00:57:28;;;;;;;2.53;1.27;;;;;;;1.20;80.25;147626.09;5041912;28;20056;-63
2022/12/25 00:59:54;;;;;;;1.40;1.30;;;;;;;1.02;80.28;147580.28;5061503;28;20293;-64
2022/12/25 01:02:22;;;;;;;3.58;1.60;;;;;;;1.08;80.05;147595.53;5049292;28;20093;-63
2022/12/25 01:04:53;;;;;;;2.55;1.60;;;;;;;1.02;80.26;147580.28;5052237;28;20055;-63
2022/12/25 01:07:19;;;;;;;1.70;1.40;;;;;;;0.95;79.42;147562.47;5057331;28;20029;-63
2022/12/25 01:12:32;;;;;;;1.50;1.40;;;;;;;0.59;80.31;147473.44;5043095;28;20048;-63
2022/12/25 01:14:58;;;;;;;3.00;1.42;;;;;;;0.81;79.37;147529.41;5061502;28;20116;-63
2022/12/25 01:17:23;;;;;;;1.60;1.50;;;;;;;0.82;79.08;147531.91;5048574;28;20033;-63
2022/12/25 01:19:49;;;;;;;2.58;1.20;;;;;;;0.68;77.72;147497.59;5042056;28;20021;-63
2022/12/25 01:22:15;;;;;;;1.40;1.25;;;;;;;0.66;78.47;147491.22;5043722;28;20341;-63
2022/12/25 01:24:43;;;;;;;1.85;1.35;;;;;;;0.76;78.48;147515.41;5042588;28;20022;-63
2022/12/25 01:27:09;;;;;;;2.45;1.40;;;;;;;0.67;76.90;147493.75;5044475;28;20093;-64
2022/12/25 01:29:35;;;;;;;1.80;1.30;;;;;;;0.43;77.62;147433.94;5062787;28;20175;-64
2022/12/25 01:32:00;;;;;;;1.42;1.17;;;;;;;0.64;76.42;147487.41;5062499;28;20035;-64
2022/12/25 01:34:26;;;;;;;1.77;1.20;;;;;;;0.65;77.18;147488.69;5056623;28;20033;-64
2022/12/25 01:36:52;;;;;;;2.30;1.40;;;;;;;0.56;77.34;147467.06;5043668;28;20025;-65
2022/12/25 01:39:17;;;;;;;1.45;1.25;;;;;;;0.61;77.55;147478.50;5062652;28;20025;-64
2022/12/25 01:41:43;;;;;;;1.98;1.55;;;;;;;0.73;79.22;147509.03;5046097;28;20036;-65
2022/12/25 01:44:14;;;;;;;1.88;1.63;;;;;;;0.71;78.36;147503.91;5056798;28;20037;-64
2022/12/25 01:46:41;;;;;;;2.80;1.58;;;;;;;0.74;79.40;147511.59;5066396;28;20039;-64
2022/12/25 01:49:21;;;;;;;3.53;1.75;;;;;;;0.77;78.25;147517.91;5063070;28;20071;-64
2022/12/25 01:52:01;;;;;;;2.13;1.50;;;;;;;0.77;78.00;147519.22;5046698;28;20240;-64
2022/12/25 01:54:38;;;;;;;2.17;1.63;;;;;;;0.69;76.17;147500.09;5066159;28;20126;-63
2022/12/25 01:57:08;;;;;;;2.30;1.58;;;;;;;0.72;76.27;147506.47;5050273;28;20040;-63
2022/12/25 01:59:34;;;;;;;2.33;1.80;;;;;;;0.73;76.52;147507.72;5060699;28;20024;-64
2022/12/25 02:02:00;;;;;;;2.55;1.92;;;;;;;0.86;77.92;147540.84;5054678;28;20326;-65
2022/12/25 02:04:37;;;;;;;2.55;1.98;;;;;;;0.82;77.13;147531.91;5046126;28;20257;-64
2022/12/25 02:07:12;;;;;;;2.63;1.95;;;;;;;0.76;77.61;147516.66;5048741;28;20310;-63
2022/12/25 02:09:38;;;;;;;4.05;2.60;;;;;;;0.76;77.79;147516.66;5065942;28;20253;-64
2022/12/25 02:12:06;;;;;;;6.38;3.30;;;;;;;0.59;77.56;147473.44;5046826;28;20029;-65
2022/12/25 02:14:35;;;;;;;4.75;2.92;;;;;;;0.31;75.85;147404.72;5044643;28;20052;-64
2022/12/25 02:17:06;;;;;;;3.70;2.50;;;;;;;0.58;76.82;147470.88;5055992;28;20313;-65
2022/12/25 02:19:52;;;;;;;2.90;2.47;;;;;;;0.02;75.34;147333.53;5059333;28;20029;-64
2022/12/25 02:22:42;;;;;;;3.97;2.60;;;;;;;0.31;76.67;147404.72;5050313;28;20195;-64
2022/12/25 02:25:45;;;;;;;4.68;2.45;;;;;;;0.05;77.00;147341.16;5061059;28;20316;-64
2022/12/25 02:28:24;;;;;;;3.38;2.63;;;;;;;0.06;77.53;147343.69;5055909;28;20025;-64
2022/12/25 02:30:57;;;;;;;3.63;2.63;;;;;;;0.10;77.59;147353.88;5064735;28;20094;-64
2022/12/25 02:36:22;;;;;;;5.10;2.13;;;;;;;0.02;77.17;147332.28;5045605;28;20031;-64
2022/12/25 02:41:41;;;;;;;3.50;3.05;;;;;;;0.28;77.54;147397.09;5045737;28;20036;-64
2022/12/25 03:07:06;;;;;;;3.53;2.42;;;;;;;-0.01;75.71;147325.91;5063892;28;20082;-64
2022/12/25 03:13:02;;;;;;;4.18;2.53;;;;;;;0.17;76.30;147371.69;5062091;28;20028;-64
2022/12/25 03:18:17;;;;;;;4.70;2.75;;;;;;;0.21;77.45;147380.56;5042887;28;20072;-64
2022/12/25 03:29:01;;;;;;;3.58;2.75;;;;;;;0.16;76.29;147369.13;5044510;28;20097;-64
2022/12/25 03:31:35;;;;;;;2.72;2.53;;;;;;;0.09;76.28;147351.31;5044274;28;20037;-65
2022/12/25 04:36:09;;;;;;;4.53;3.72;;;;;;;-0.73;74.19;147147.97;5043290;28;20140;-63
2022/12/25 04:38:36;;;;;;;5.80;3.63;;;;;;;-0.73;73.10;147149.25;5043257;28;20029;-64
2022/12/25 04:41:02;;;;;;;4.70;3.40;;;;;;;-0.62;73.09;147175.91;5052406;28;20029;-64
2022/12/25 04:43:29;;;;;;;4.20;3.78;;;;;;;-0.49;73.77;147206.44;5058371;28;20043;-65
2022/12/25 04:45:55;;;;;;;4.13;3.25;;;;;;;-0.59;72.73;147183.53;5043194;28;20345;-64
2022/12/25 04:48:21;;;;;;;4.97;3.38;;;;;;;-0.77;72.26;147137.78;5047844;28;20064;-65
2022/12/25 04:50:47;;;;;;;6.43;3.22;;;;;;;-0.71;70.49;147153.06;5042950;28;20191;-64
2022/12/25 04:53:13;;;;;;;4.93;3.58;;;;;;;-0.76;72.71;147140.34;5053726;28;20029;-65
2022/12/25 04:55:38;;;;;;;4.10;3.20;;;;;;;-0.67;73.03;147163.22;5057183;28;20025;-64
2022/12/25 04:58:04;;;;;;;5.40;3.50;;;;;;;-0.53;72.58;147198.81;5065372;28;20075;-63
2022/12/25 05:00:29;;;;;;;4.72;3.70;;;;;;;-0.50;73.45;147203.88;5043000;28;20301;-65
2022/12/25 05:02:56;;;;;;;4.32;3.83;;;;;;;-0.46;72.87;147215.28;5059245;28;20052;-64
2022/12/25 05:05:22;;;;;;;4.72;3.50;;;;;;;-0.37;72.14;147236.88;5051017;28;20026;-65
2022/12/25 05:07:47;;;;;;;3.70;3.30;;;;;;;-0.49;72.68;147206.44;5051949;28;20087;-64
2022/12/25 05:10:13;;;;;;;4.50;3.70;;;;;;;-0.49;73.08;147207.69;5062891;28;20294;-65
2022/12/25 05:12:39;;;;;;;6.40;3.72;;;;;;;-0.91;72.14;147104.78;5062937;28;20025;-65
2022/12/25 05:15:04;;;;;;;6.90;3.63;;;;;;;-0.74;73.60;147146.69;5062883;28;20064;-64
2022/12/25 05:17:30;;;;;;;5.28;3.70;;;;;;;-0.57;73.37;147187.34;5049613;28;20037;-64
2022/12/25 05:19:56;;;;;;;4.95;4.00;;;;;;;-0.50;75.00;147205.13;5070400;28;20029;-64
2022/12/25 05:22:21;;;;;;;3.88;3.53;;;;;;;-0.91;73.36;147104.78;5062818;28;20249;-63
2022/12/25 05:24:47;;;;;;;5.03;3.72;;;;;;;-0.53;74.05;147198.81;5066701;28;20189;-63
2022/12/25 05:27:13;;;;;;;4.63;3.78;;;;;;;-0.58;73.20;147186.09;5064141;28;20159;-65
2022/12/25 05:29:39;;;;;;;4.45;3.58;;;;;;;-0.60;73.52;147181.03;5046628;28;20021;-64
2022/12/25 05:32:05;;;;;;;4.68;3.75;;;;;;;-0.61;73.28;147177.22;5055877;28;20028;-63
2022/12/25 05:34:30;;;;;;;4.53;3.97;;;;;;;-0.60;73.50;147179.72;5061946;28;20029;-64
2022/12/25 05:36:56;;;;;;;5.85;4.00;;;;;;;-0.69;72.97;147158.13;5046282;28;20079;-63
2022/12/25 05:39:22;;;;;;;4.68;3.42;;;;;;;-0.73;73.32;147149.25;5066066;28;20103;-64
2022/12/25 05:41:47;;;;;;;5.10;4.40;;;;;;;-0.61;74.09;147177.22;5051202;28;20040;-64
2022/12/25 05:44:13;;;;;;;5.43;3.78;;;;;;;-0.68;74.32;147159.38;5072094;28;20051;-64
2022/12/25 05:46:39;;;;;;;5.18;4.30;;;;;;;-0.72;74.09;147151.75;5066531;28;20249;-63
2022/12/25 05:49:04;;;;;;;4.82;3.67;;;;;;;-0.78;72.75;147135.28;5065576;28;20040;-66
2022/12/25 05:51:30;;;;;;;4.03;3.20;;;;;;;-0.89;72.34;147109.84;5046261;28;20272;-65
2022/12/25 05:53:56;;;;;;;4.95;3.50;;;;;;;-0.83;71.64;147122.56;5062207;28;20073;-65
2022/12/25 05:56:21;;;;;;;4.32;3.22;;;;;;;-0.75;72.58;147144.16;5054625;28;20072;-65
2022/12/25 05:58:47;;;;;;;4.97;3.55;;;;;;;-0.82;73.13;147125.09;5047503;28;20085;-65
2022/12/25 06:01:25;;;;;;;3.80;2.72;;;;;;;-0.81;72.26;147128.91;5048365;28;20021;-65
2022/12/25 06:03:50;;;;;;;4.97;3.10;;;;;;;-0.59;72.21;147182.28;5053374;28;20316;-64
2022/12/25 06:06:16;;;;;;;3.70;3.40;;;;;;;-0.70;73.99;147155.56;5054569;28;20024;-65
2022/12/25 06:08:41;;;;;;;4.32;3.35;;;;;;;-0.65;73.41;147167.03;5053855;28;20021;-66
2022/12/25 06:11:08;;;;;;;5.22;3.03;;;;;;;-0.64;73.71;147170.84;5053829;28;20032;-65
2022/12/25 06:13:35;;;;;;;4.28;3.40;;;;;;;-0.67;73.59;147161.94;5053892;28;20127;-64
2022/12/25 06:16:09;;;;;;;5.15;3.45;;;;;;;-0.72;74.31;147150.50;5056580;28;20036;-64
2022/12/25 06:18:36;;;;;;;3.95;2.97;;;;;;;-0.73;73.46;147147.97;5056463;28;20057;-64
2022/12/25 06:21:08;;;;;;;3.97;2.47;;;;;;;-0.76;72.70;147141.59;5056738;28;20389;-64
2022/12/25 06:23:34;;;;;;;4.85;2.60;;;;;;;-0.61;73.64;147178.47;5056949;28;20049;-64
2022/12/25 06:26:05;;;;;;;4.47;2.83;;;;;;;-0.60;74.01;147181.03;5053512;28;20104;-65
2022/12/25 06:28:31;;;;;;;4.20;2.60;;;;;;;-0.64;72.03;147169.56;5053891;28;20025;-65
2022/12/25 06:30:57;;;;;;;2.50;2.25;;;;;;;-0.73;72.11;147147.97;5052031;28;20024;-65
2022/12/25 06:33:22;;;;;;;3.03;2.75;;;;;;;-0.68;74.12;147159.38;5054442;28;20087;-65
2022/12/25 06:35:48;;;;;;;3.10;2.80;;;;;;;-0.75;74.12;147142.91;5052491;28;20052;-66
2022/12/25 06:38:13;;;;;;;2.50;2.28;;;;;;;-0.85;72.21;147117.50;5053742;28;20025;-65
2022/12/25 06:40:39;;;;;;;3.35;2.30;;;;;;;-0.76;72.79;147140.34;5052601;28;20052;-65
2022/12/25 06:43:04;;;;;;;3.38;2.53;;;;;;;-0.63;72.32;147172.09;5055322;28;20028;-65
2022/12/25 06:45:30;;;;;;;3.03;2.60;;;;;;;-0.74;72.90;147146.69;5053244;28;20313;-65
2022/12/25 06:47:55;;;;;;;3.35;2.33;;;;;;;-0.73;73.27;147147.97;5053085;28;20021;-64
2022/12/25 06:50:21;;;;;;;3.75;2.50;;;;;;;-0.63;73.09;147173.34;5053819;28;20052;-64
2022/12/25 06:52:47;;;;;;;4.88;2.45;;;;;;;-0.78;71.64;147136.53;5053741;28;20033;-65
2022/12/25 06:55:13;;;;;;;2.97;2.22;;;;;;;-0.70;73.00;147155.56;5054065;28;20024;-65
2022/12/25 06:57:38;;;;;;;6.78;2.40;;;;;;;-0.90;74.61;147106.03;5049843;28;20124;-64
2022/12/25 07:00:05;;;;;;;4.63;2.72;;;;;;;-0.92;74.50;147100.97;5044865;28;20325;-64
2022/12/25 07:02:32;;;;;;;3.88;2.92;;;;;;;-0.89;72.96;147108.56;5056775;28;20094;-64
2022/12/25 07:04:58;;;;;;;3.38;2.30;;;;;;;-0.87;71.20;147113.63;5057430;28;20029;-65
2022/12/25 07:07:24;;;;;;;4.60;2.65;;;;;;;-0.76;72.19;147141.59;5044600;28;20040;-64
2022/12/25 07:09:49;;;;;;;3.20;2.55;;;;;;;-0.75;72.09;147142.91;5044855;28;20025;-64
2022/12/25 07:12:19;;;;;;;2.50;2.30;;;;;;;-0.75;71.65;147144.16;5062683;28;20078;-65
2022/12/25 07:15:05;;;;;;;4.22;2.70;;;;;;;-0.74;72.23;147146.69;5050307;28;20029;-64
2022/12/25 07:17:33;;;;;;;4.72;2.83;;;;;;;-0.77;71.80;147137.78;5044447;28;20037;-64
2022/12/25 07:19:59;;;;;;;4.53;2.88;;;;;;;-0.66;71.11;147164.50;5050531;28;20226;-65
2022/12/25 07:22:24;;;;;;;4.30;3.03;;;;;;;-0.61;71.28;147178.47;5049424;28;20025;-65
2022/12/25 07:24:50;;;;;;;3.08;2.78;;;;;;;-0.70;71.44;147155.56;5052933;28;20029;-64
2022/12/25 07:27:15;;;;;;;5.07;3.00;;;;;;;-0.96;71.19;147092.06;5054282;28;20029;-65
2022/12/25 07:29:41;;;;;;;3.20;2.90;;;;;;;-0.68;71.65;147159.38;5044319;28;20055;-64
2022/12/25 07:32:06;;;;;;;3.47;2.80;;;;;;;-0.81;71.50;147127.63;5051041;28;20060;-65
2022/12/25 07:34:32;;;;;;;3.00;2.70;;;;;;;-0.82;70.74;147126.38;5046971;28;20037;-64
2022/12/25 07:36:57;;;;;;;4.97;3.03;;;;;;;-0.82;70.52;147125.09;5061812;28;20029;-64
2022/12/25 07:39:23;;;;;;;4.45;2.95;;;;;;;-0.72;71.24;147150.50;5033937;28;20036;-64
2022/12/25 07:41:49;;;;;;;3.75;2.80;;;;;;;-0.80;71.56;147130.16;5048720;28;20274;-64
2022/12/25 07:44:15;;;;;;;4.20;3.08;;;;;;;-0.80;72.05;147130.16;5053193;28;20021;-64
2022/12/25 07:46:40;;;;;;;3.45;2.30;;;;;;;-0.75;71.69;147142.91;5059131;28;20253;-63
2022/12/25 07:49:06;;;;;;;3.10;2.13;;;;;;;-0.74;70.64;147145.41;5054631;28;20033;-65
2022/12/25 07:51:32;;;;;;;4.65;2.60;;;;;;;-0.90;71.28;147107.31;5048643;28;20096;-64
2022/12/25 07:53:57;;;;;;;3.22;2.15;;;;;;;-0.88;71.55;147112.38;5049839;28;20100;-64
2022/12/25 07:56:23;;;;;;;2.42;1.90;;;;;;;-1.12;71.24;147051.44;5055003;28;20052;-64
2022/12/25 07:58:48;;;;;;;3.10;2.20;;;;;;;-1.33;71.49;147000.59;5050102;28;20025;-65
2022/12/25 08:01:19;;;;;;;3.47;2.50;;;;;;;-1.20;73.33;147032.34;5053640;28;20026;-65
2022/12/25 08:03:56;;;;;;;3.92;2.28;;;;;;;-1.27;71.66;147015.88;5048987;28;20072;-65
2022/12/25 08:06:25;;;;;;;2.10;1.80;;;;;;;-1.22;72.96;147027.28;5052633;28;20040;-65
2022/12/25 08:08:51;;;;;;;4.82;2.55;;;;;;;-1.04;73.03;147071.75;5054107;28;20024;-64
2022/12/25 08:11:17;;;;;;;5.07;2.40;;;;;;;-1.10;70.75;147057.78;5055244;28;20080;-64
2022/12/25 08:13:42;;;;;;;4.65;2.30;;;;;;;-0.93;72.67;147099.66;5052733;28;20025;-65
2022/12/25 08:16:09;;;;;;;3.88;2.13;;;;;;;-1.01;73.06;147079.38;5062900;28;20048;-65
2022/12/25 08:18:36;;;;;;;4.40;2.60;;;;;;;-0.98;72.12;147085.69;5043569;28;20465;-65
2022/12/25 08:21:12;;;;;;;2.72;2.38;;;;;;;-0.86;72.47;147116.19;5050197;28;20049;-66
2022/12/25 08:23:40;;;;;;;3.40;2.42;;;;;;;-0.89;72.55;147109.84;5053691;28;20057;-65
2022/12/25 08:26:08;;;;;;;3.80;2.72;;;;;;;-0.83;72.37;147122.56;5051686;28;20374;-64
2022/12/25 08:28:34;;;;;;;5.30;3.15;;;;;;;-0.88;73.64;147112.38;5052423;28;20040;-64
2022/12/25 08:31:14;;;;;;;5.25;2.70;;;;;;;-0.87;72.52;147113.63;5051291;28;20032;-65
2022/12/25 08:33:40;;;;;;;6.93;3.00;;;;;;;-0.75;73.37;147142.91;5049882;28;20029;-65
2022/12/25 08:36:08;;;;;;;7.47;2.90;;;;;;;-0.78;72.23;147136.53;5051669;28;20032;-64
2022/12/25 08:38:34;;;;;;;2.85;2.30;;;;;;;-1.01;70.89;147078.06;5051550;28;20051;-64
2022/12/25 08:40:59;;;;;;;3.47;2.45;;;;;;;-1.08;71.97;147061.59;5051598;28;20021;-65
2022/12/25 08:43:25;;;;;;;9.80;4.55;;;;;;;-0.93;72.34;147098.41;5050334;28;20093;-65
2022/12/25 08:45:50;;;;;;;3.30;2.40;;;;;;;-0.90;71.33;147107.31;5052025;28;20029;-64
2022/12/25 08:48:16;;;;;;;2.88;1.90;;;;;;;-0.98;72.24;147087.00;5051794;28;20041;-65
2022/12/25 08:50:46;;;;;;;4.15;2.38;;;;;;;-0.98;71.54;147085.69;5051525;28;20119;-65
2022/12/25 08:53:12;;;;;;;3.78;2.03;;;;;;;-1.16;72.77;147042.50;5051591;28;20032;-66
2022/12/25 08:55:38;;;;;;;4.32;2.65;;;;;;;-1.14;71.82;147046.31;5050886;28;20025;-65
2022/12/25 08:58:03;;;;;;;5.82;2.40;;;;;;;-1.12;72.80;147051.44;5053453;28;20063;-66
2022/12/25 09:00:29;;;;;;;3.05;1.90;;;;;;;-1.07;72.66;147065.41;5044001;28;20076;-65
2022/12/25 09:02:54;;;;;;;3.20;2.17;;;;;;;-1.14;74.00;147046.31;5042803;28;20060;-64
2022/12/25 09:05:20;;;;;;;3.75;2.60;;;;;;;-1.01;74.48;147079.38;5042685;28;20256;-65
2022/12/25 09:07:45;;;;;;;18.40;9.05;;;;;;;-0.93;72.24;147098.41;5042613;28;20022;-64
2022/12/25 09:10:11;;;;;;;4.18;2.53;;;;;;;-1.07;71.86;147065.41;5042912;28;20025;-65
2022/12/25 09:12:37;;;;;;;2.85;2.55;;;;;;;-1.29;73.36;147009.53;5062772;28;20029;-65
2022/12/25 09:15:03;;;;;;;4.13;2.38;;;;;;;-1.24;73.47;147022.19;5046045;28;20061;-65
2022/12/25 09:17:30;;;;;;;3.60;2.63;;;;;;;-1.19;73.10;147034.91;5042489;28;20037;-64
2022/12/25 09:19:55;;;;;;;3.83;2.70;;;;;;;-1.05;73.39;147070.47;5048632;28;20021;-64
2022/12/25 09:22:21;;;;;;;3.03;2.50;;;;;;;-0.91;73.09;147104.78;5057628;28;20021;-65
2022/12/25 09:24:46;;;;;;;3.42;2.22;;;;;;;-0.93;72.00;147098.41;5062561;28;20029;-65
2022/12/25 09:27:12;;;;;;;3.58;2.25;;;;;;;-0.92;72.63;147102.22;5048219;28;20068;-65
2022/12/25 09:29:38;;;;;;;3.88;2.40;;;;;;;-0.99;72.06;147084.44;5062692;28;20048;-65
2022/12/25 09:32:04;;;;;;;2.33;1.88;;;;;;;-0.96;71.73;147092.06;5055696;28;20068;-66
2022/12/25 09:34:30;;;;;;;3.40;1.90;;;;;;;-0.91;70.70;147103.53;5044805;28;20045;-64
2022/12/25 09:36:55;;;;;;;3.35;1.88;;;;;;;-0.92;70.95;147102.22;5051472;28;20025;-64
2022/12/25 09:39:22;;;;;;;3.35;2.10;;;;;;;-0.99;71.37;147084.44;5047966;28;20285;-65
2022/12/25 09:41:55;;;;;;;3.20;2.00;;;;;;;-1.07;70.60;147064.09;5055732;28;20071;-65
2022/12/25 09:44:25;;;;;;;2.50;2.22;;;;;;;-0.94;71.27;147097.16;5056739;28;20063;-65
2022/12/25 09:47:04;;;;;;;2.63;2.40;;;;;;;-1.13;71.74;147048.88;5047139;28;20037;-64
2022/12/25 09:49:39;;;;;;;3.85;2.50;;;;;;;-0.86;71.90;147116.19;5060279;28;20107;-65
2022/12/25 09:52:15;;;;;;;2.88;2.63;;;;;;;-0.89;72.11;147108.56;5049963;28;20059;-65
2022/12/25 09:54:43;;;;;;;4.55;2.60;;;;;;;-0.73;72.20;147147.97;5051476;28;20026;-65
2022/12/25 09:57:11;;;;;;;5.35;2.80;;;;;;;-0.93;71.45;147099.66;5050079;28;20360;-65
2022/12/25 09:59:38;;;;;;;5.40;3.00;;;;;;;-0.88;71.40;147112.38;5051689;28;20037;-64
2022/12/25 10:02:37;;;;;;;3.42;2.80;;;;;;;-0.87;72.15;147114.94;5049423;28;20025;-66
2022/12/25 10:05:15;;;;;;;3.45;2.30;;;;;;;-0.77;71.28;147139.09;5049052;28;20312;-65
2022/12/25 10:07:53;;;;;;;4.28;2.88;;;;;;;-0.83;72.25;147122.56;5058690;28;20202;-65
2022/12/25 10:10:42;;;;;;;5.13;2.90;;;;;;;-0.70;72.62;147155.56;5053685;28;20197;-64
2022/12/25 10:13:51;;;;;;;4.47;2.90;;;;;;;-0.66;70.46;147164.50;5064798;28;20191;-65
2022/12/25 10:16:38;;;;;;;4.78;3.05;;;;;;;-0.76;73.32;147141.59;5061715;28;20230;-64
2022/12/25 10:19:06;;;;;;;3.72;2.83;;;;;;;-0.85;73.07;147117.50;5054424;28;20086;-65
2022/12/25 10:21:32;;;;;;;4.63;3.10;;;;;;;-0.74;71.92;147146.69;5053561;28;20140;-65
2022/12/25 10:23:58;;;;;;;9.13;6.57;;;;;;;-0.83;71.37;147123.81;5050253;28;20164;-65
2022/12/25 10:26:25;;;;;;;4.20;3.03;;;;;;;-1.02;71.64;147076.81;5053483;28;20147;-64
2022/12/25 10:28:59;;;;;;;4.38;2.50;;;;;;;-0.93;72.30;147099.66;5058399;28;20037;-65
2022/12/25 10:31:32;;;;;;;1.75;1.65;;;;;;;-1.04;70.23;147071.75;5055039;28;20193;-64
2022/12/25 10:33:58;;;;;;;2.20;2.00;;;;;;;-0.97;70.52;147088.25;5055970;28;20025;-65
2022/12/25 10:36:26;;;;;;;3.90;2.40;;;;;;;-1.02;71.25;147075.56;5054672;28;20029;-65
2022/12/25 10:38:52;;;;;;;3.42;2.63;;;;;;;-0.87;71.37;147113.63;5054971;28;20052;-65
2022/12/25 10:41:25;;;;;;;2.58;2.38;;;;;;;-0.97;71.14;147088.25;5057097;28;20056;-65
2022/12/25 10:43:56;;;;;;;4.70;2.40;;;;;;;-1.20;70.94;147032.34;5045247;28;20026;-66
2022/12/25 10:46:25;;;;;;;3.03;2.42;;;;;;;-1.08;71.38;147061.59;5045281;28;20030;-65
2022/12/25 10:48:50;;;;;;;26.08;15.65;;;;;;;-1.06;71.59;147066.66;5044891;28;20034;-65
2022/12/25 10:51:45;;;;;;;4.40;2.92;;;;;;;-0.91;70.78;147104.78;5061081;28;20043;-65
2022/12/25 10:54:24;;;;;;;2.35;2.15;;;;;;;-1.12;71.36;147052.69;5053898;28;20100;-65
2022/12/25 10:56:59;;;;;;;3.58;2.38;;;;;;;-0.94;71.50;147097.16;5057338;28;20385;-65
2022/12/25 10:59:28;;;;;;;4.22;3.10;;;;;;;-0.96;71.32;147092.06;5055918;28;20029;-64
2022/12/25 11:02:11;;;;;;;3.75;2.50;;;;;;;-1.01;73.00;147079.38;5049530;28;20100;-64
2022/12/25 11:04:37;;;;;;;4.78;2.65;;;;;;;-0.87;71.87;147114.94;5062200;28;20084;-64
2022/12/25 11:07:18;;;;;;;3.42;2.50;;;;;;;-0.93;70.69;147099.66;5044652;28;20277;-65
2022/12/25 11:09:54;;;;;;;5.03;2.78;;;;;;;-0.85;70.51;147117.50;5045457;28;20033;-64
2022/12/25 11:12:31;;;;;;;3.90;2.45;;;;;;;-1.08;71.15;147061.59;5050223;28;20062;-64
2022/12/25 11:14:59;;;;;;;5.97;3.40;;;;;;;-0.94;72.76;147097.16;5057746;28;20072;-64
2022/12/25 11:17:26;;;;;;;4.30;3.30;;;;;;;-0.89;71.28;147109.84;5053294;28;20049;-64
2022/12/25 11:19:54;;;;;;;3.75;2.67;;;;;;;-1.05;71.72;147069.22;5049842;28;20036;-64
2022/12/25 11:22:20;;;;;;;5.68;3.22;;;;;;;-1.10;71.22;147057.78;5055063;28;20057;-64
2022/12/25 11:24:46;;;;;;;3.45;3.15;;;;;;;-0.96;70.94;147092.06;5054248;28;20429;-64
2022/12/25 11:27:32;;;;;;;5.53;3.40;;;;;;;-0.81;71.99;147127.63;5051819;28;20032;-65
2022/12/25 11:30:02;;;;;;;2.63;2.40;;;;;;;-0.89;72.35;147109.84;5055238;28;20036;-65
2022/12/25 11:32:45;;;;;;;6.10;2.80;;;;;;;-0.84;72.07;147120.00;5052604;28;20036;-64
2022/12/25 11:35:14;;;;;;;3.40;2.47;;;;;;;-0.89;70.76;147109.84;5053804;28;20021;-66
2022/12/25 11:37:50;;;;;;;3.47;2.50;;;;;;;-0.90;70.47;147106.03;5048124;28;20053;-64
2022/12/25 11:40:23;;;;;;;3.28;2.30;;;;;;;-0.91;70.13;147103.53;5049486;28;20029;-64
2022/12/25 11:42:53;;;;;;;3.30;2.70;;;;;;;-0.83;69.87;147123.81;5052229;28;20032;-63
2022/12/25 11:45:46;;;;;;;3.90;2.50;;;;;;;-0.81;69.84;147127.63;5046032;28;20047;-65
2022/12/25 11:48:15;;;;;;;4.32;2.83;;;;;;;-0.81;71.16;147127.63;5058481;28;20139;-64
2022/12/25 11:50:44;;;;;;;5.40;2.42;;;;;;;-0.82;68.36;147125.09;5053329;28;20037;-64
2022/12/25 11:53:21;;;;;;;3.30;2.28;;;;;;;-0.83;70.42;147123.81;5050431;28;20249;-64
2022/12/25 11:55:53;;;;;;;3.42;2.53;;;;;;;-0.77;70.38;147139.09;5060708;28;20090;-65
2022/12/25 11:58:46;;;;;;;6.20;3.10;;;;;;;-0.75;70.55;147144.16;5043863;28;20049;-65
2022/12/25 12:01:59;;;;;;;2.75;2.45;;;;;;;-0.77;70.19;147139.09;5042689;28;20225;-64
2022/12/25 12:04:31;;;;;;;3.67;3.08;;;;;;;-0.92;70.39;147102.22;5042827;28;20044;-65
2022/12/25 12:07:03;;;;;;;3.22;2.88;;;;;;;-0.80;70.55;147131.44;5063107;28;20099;-65
2022/12/25 12:09:56;;;;;;;5.40;3.05;;;;;;;-0.80;70.48;147130.16;5043970;28;20207;-64
2022/12/25 12:12:34;;;;;;;5.05;3.13;;;;;;;-0.77;71.34;147137.78;5060188;28;20021;-65
2022/12/25 12:15:07;;;;;;;2.85;2.65;;;;;;;-0.78;71.86;147136.53;5050284;28;20112;-64
2022/12/25 12:17:33;;;;;;;3.85;2.90;;;;;;;-0.81;71.55;147127.63;5053195;28;20039;-64
2022/12/25 12:20:11;;;;;;;3.08;2.78;;;;;;;-1.12;70.95;147052.69;5058160;28;20044;-65
2022/12/25 12:22:37;;;;;;;6.13;3.05;;;;;;;-0.98;70.67;147087.00;5044091;28;20017;-65
2022/12/25 12:25:07;;;;;;;4.28;2.70;;;;;;;-0.96;72.22;147090.78;5061227;28;20032;-64
2022/12/25 12:27:39;;;;;;;5.15;2.55;;;;;;;-1.00;71.06;147081.88;5048224;28;20060;-64
2022/12/25 12:30:25;;;;;;;2.60;2.30;;;;;;;-0.96;68.96;147090.78;5063207;28;20029;-64
2022/12/25 12:32:53;;;;;;;2.72;1.80;;;;;;;-1.07;69.78;147064.09;5051681;28;20222;-64
2022/12/25 12:35:21;;;;;;;3.50;2.20;;;;;;;-0.90;70.47;147107.31;5049625;28;20029;-65
2022/12/25 12:38:13;;;;;;;2.55;2.25;;;;;;;-0.97;69.74;147089.53;5043411;28;20101;-64
2022/12/25 12:40:53;;;;;;;3.13;2.00;;;;;;;-1.13;70.28;147048.88;5045086;28;20120;-65
2022/12/25 12:43:39;;;;;;;2.38;1.92;;;;;;;-1.05;68.97;147069.22;5063183;28;20037;-65
2022/12/25 12:46:25;;;;;;;3.40;2.40;;;;;;;-1.16;69.63;147041.28;5050306;28;20052;-64
2022/12/25 12:48:53;;;;;;;4.32;2.17;;;;;;;-1.12;68.55;147051.44;5042789;28;20048;-65
2022/12/25 12:51:34;;;;;;;4.13;2.13;;;;;;;-1.24;69.08;147022.19;5042880;28;20029;-65
2022/12/25 12:54:20;;;;;;;3.70;2.70;;;;;;;-1.15;68.75;147043.81;5055687;28;20021;-65
2022/12/25 12:56:59;;;;;;;3.05;1.90;;;;;;;-1.25;69.21;147020.94;5051977;28;20326;-65
2022/12/25 12:59:26;;;;;;;3.10;1.83;;;;;;;-0.96;70.28;147092.06;5043190;28;20037;-65
2022/12/25 13:02:24;;;;;;;3.28;2.25;;;;;;;-1.09;68.88;147060.28;5046467;28;20033;-65
2022/12/25 13:05:04;;;;;;;3.05;2.42;;;;;;;-1.06;69.29;147067.91;5040477;28;20040;-64
2022/12/25 13:07:55;;;;;;;3.80;2.20;;;;;;;-0.96;70.45;147092.06;5042991;28;20025;-65
2022/12/25 13:10:31;;;;;;;5.05;2.08;;;;;;;-0.99;68.25;147083.19;5063101;28;20075;-65
2022/12/25 13:13:01;;;;;;;3.60;1.67;;;;;;;-1.04;68.04;147071.75;5042966;28;20036;-65
2022/12/25 13:15:32;;;;;;;4.43;2.47;;;;;;;-1.06;68.62;147066.66;5059198;28;20041;-65
2022/12/25 13:18:03;;;;;;;5.95;2.40;;;;;;;-1.04;69.02;147071.75;5062652;28;20036;-65
2022/12/25 13:20:41;;;;;;;5.28;2.88;;;;;;;-1.26;69.87;147018.38;5054802;28;20053;-65
2022/12/25 13:23:27;;;;;;;4.57;2.92;;;;;;;-1.13;70.80;147048.88;5049726;28;20021;-64
2022/12/25 13:25:58;;;;;;;4.75;2.67;;;;;;;-1.19;69.00;147034.91;5042612;28;20032;-64
2022/12/25 13:28:30;;;;;;;5.18;3.03;;;;;;;-1.18;69.19;147036.16;5054885;28;20029;-64